Hobgood, North Carolina
Current Conditions -  °F | °C
As of 4:35 AM on Saturday 25 Oct 2014 (Local Time) from KETC Reporting Station
Haze Haze  
Wind Chill: 40°   Ceiling: Unl
Heat Index: 40°   Visibility: 4mi
Dew Point: 39°   Wind: 0mph
Humidity: 97%   Direction: NA
Pressure: 29.96"   Gusts: NA
Location:  36.03°N, 77.4°W
Report Text: KETC 250835Z AUTO 00000KT 4SM BR CLR 05/04 A2996 RMK AO2 T00460041
Loading
Personal Weather Stations






























Interactive Weather Map
Tropical Storm Tracking
New forecast layout! Learn more

10-Day Weather Forecast

Advertisements
Track Severe Weather on mobile